Minocqua, Wisconsin
Current Conditions -  °F | °C
As of 12:35 PM on Wednesday 26 Nov 2014 (Local Time) from KARV Reporting Station
Light Snow Light Snow  
Wind Chill: 22°   Ceiling: 1300
Heat Index: 22°   Visibility: 2mi
Dew Point: 18°   Wind: 0mph
Humidity: 83%   Direction: NA
Pressure: 30.1"   Gusts: NA
Location:  45.93°N, 89.73°W
Report Text: KARV 261835Z AUTO 00000KT 2SM -SN BKN013 BKN020 BKN025 M05/M08 A3010 RMK AO2 T10541078
Loading
Personal Weather Stations






























Interactive Weather Map New forecast layout! Learn more

10-Day Weather Forecast

Advertisements
Track Severe Weather on mobile